Time;durP1;ratioP1;P1;durP2;ratioP2;P2;SDS_P1;SDS_P2;PMS_P1;PMS_P2;Temp;Humidity;BMP_temperature;BMP_pressure;BME280_temperature;BME280_humidity;BME280_pressure;Samples;Min_cycle;Max_cycle;Signal;HPM_P1;HPM_P2
2023/04/05 00:00:37;;;;;;;13.38;7.70;;;;;;;5.11;78.49;102499.66;4884793;29;20049;-91
2023/04/05 00:03:03;;;;;;;12.15;6.65;;;;;;;4.99;79.07;102495.38;4890591;29;20035;-90
2023/04/05 00:05:33;;;;;;;12.88;7.90;;;;;;;4.91;79.14;102478.56;4904555;29;20046;-90
2023/04/05 00:08:12;;;;;;;13.15;6.15;;;;;;;5.03;78.44;102503.94;4904580;29;20391;-90
2023/04/05 00:10:38;;;;;;;12.73;7.00;;;;;;;4.96;79.05;102487.66;4902464;29;20682;-89
2023/04/05 00:13:03;;;;;;;14.50;6.78;;;;;;;4.98;78.93;102496.50;4887247;29;20027;-90
2023/04/05 00:15:30;;;;;;;10.55;6.25;;;;;;;4.96;79.10;102504.31;4909635;29;20047;-90
2023/04/05 00:17:56;;;;;;;9.63;6.60;;;;;;;4.93;78.91;102482.69;4899050;29;20046;-90
2023/04/05 00:20:22;;;;;;;17.30;8.00;;;;;;;4.87;79.61;102481.13;4914774;29;20043;-91
2023/04/05 00:22:49;;;;;;;9.50;5.78;;;;;;;4.83;78.97;102483.69;4909475;29;20128;-90
2023/04/05 00:25:15;;;;;;;14.60;7.65;;;;;;;4.88;78.98;102491.09;4907974;29;20118;-89
2023/04/05 00:27:42;;;;;;;17.25;7.55;;;;;;;4.77;78.97;102478.50;4916964;29;20024;-89
2023/04/05 00:30:08;;;;;;;14.80;5.85;;;;;;;4.81;79.42;102480.38;4919561;29;20391;-90
2023/04/05 00:32:33;;;;;;;12.05;6.22;;;;;;;4.78;78.77;102466.28;4898349;29;20038;-90
2023/04/05 00:34:58;;;;;;;9.60;6.57;;;;;;;4.66;79.50;102462.00;4918682;29;20039;-89
2023/04/05 00:37:24;;;;;;;13.20;7.35;;;;;;;4.68;79.68;102476.41;4899431;29;20032;-90
2023/04/05 00:39:49;;;;;;;12.32;7.13;;;;;;;4.77;79.18;102473.78;4900500;29;20041;-90
2023/04/05 00:42:15;;;;;;;10.40;6.10;;;;;;;4.67;79.33;102480.28;4921083;29;20445;-90
2023/04/05 00:44:40;;;;;;;12.27;6.78;;;;;;;4.68;79.19;102467.25;4908907;29;20857;-90
2023/04/05 00:47:06;;;;;;;12.45;6.55;;;;;;;4.63;79.62;102459.00;4920031;29;20039;-90
2023/04/05 00:49:33;;;;;;;12.43;6.45;;;;;;;4.63;79.19;102462.59;4917915;29;20035;-91
2023/04/05 00:52:00;;;;;;;13.77;6.63;;;;;;;4.60;79.68;102468.75;4897635;29;20514;-91
2023/04/05 00:54:28;;;;;;;11.98;6.40;;;;;;;4.59;79.42;102461.53;4904875;29;20292;-90
2023/04/05 00:56:55;;;;;;;12.88;6.28;;;;;;;4.56;79.34;102456.59;4900328;29;20422;-91
2023/04/05 00:59:20;;;;;;;11.98;7.55;;;;;;;4.56;79.43;102448.28;4908958;29;20031;-90
2023/04/05 01:01:53;;;;;;;12.60;7.00;;;;;;;4.46;79.33;102451.19;4924889;29;20065;-90
2023/04/05 01:04:24;;;;;;;13.55;7.15;;;;;;;4.45;79.65;102446.78;4903260;29;20055;-90
2023/04/05 01:07:18;;;;;;;12.48;6.97;;;;;;;4.48;79.84;102452.53;4904300;29;20247;-90
2023/04/05 01:09:54;;;;;;;11.60;6.97;;;;;;;4.44;79.61;102457.03;4903569;29;20491;-90
2023/04/05 01:12:22;;;;;;;13.32;5.95;;;;;;;4.40;79.66;102455.97;4916434;29;20040;-90
2023/04/05 01:14:53;;;;;;;8.40;6.07;;;;;;;4.41;79.72;102459.59;4914329;29;20032;-90
2023/04/05 01:17:22;;;;;;;12.45;7.35;;;;;;;4.24;79.99;102430.41;4920695;29;20114;-90
2023/04/05 01:19:52;;;;;;;12.05;5.85;;;;;;;4.30;79.76;102439.50;4897554;29;20052;-90
2023/04/05 01:23:21;;;;;;;14.98;7.10;;;;;;;4.35;79.86;102444.97;4897389;29;20637;-90
2023/04/05 01:26:22;;;;;;;15.30;6.38;;;;;;;4.33;79.44;102446.38;4814430;29;20072;-90
2023/04/05 01:29:06;;;;;;;11.25;6.57;;;;;;;4.31;79.43;102443.06;4884722;29;20490;-92
2023/04/05 01:31:38;;;;;;;12.32;6.78;;;;;;;4.30;79.29;102447.81;4896907;29;20535;-89
2023/04/05 01:34:24;;;;;;;13.88;6.90;;;;;;;4.24;79.64;102438.72;4909161;29;20044;-91
2023/04/05 01:36:55;;;;;;;12.10;6.80;;;;;;;4.22;79.85;102442.91;4907077;29;20130;-90
2023/04/05 01:39:23;;;;;;;14.20;6.43;;;;;;;4.17;79.69;102441.00;4900209;29;20042;-90
2023/04/05 01:41:48;;;;;;;12.55;6.72;;;;;;;4.17;80.02;102438.22;4903037;29;20483;-91
2023/04/05 01:44:14;;;;;;;11.73;6.85;;;;;;;4.14;79.64;102436.06;4887118;29;20038;-91
2023/04/05 01:46:39;;;;;;;15.10;6.50;;;;;;;4.08;79.74;102432.53;4905832;29;20494;-89
2023/04/05 01:49:04;;;;;;;13.15;6.80;;;;;;;4.09;80.04;102436.16;4891017;29;20043;-90
2023/04/05 01:51:30;;;;;;;14.48;6.80;;;;;;;4.11;80.13;102433.06;4893818;29;20055;-90
2023/04/05 01:53:56;;;;;;;10.32;6.82;;;;;;;4.06;80.25;102426.44;4900931;29;20565;-90
2023/04/05 01:56:21;;;;;;;12.05;6.68;;;;;;;3.99;80.08;102414.09;4886200;29;20098;-90
2023/04/05 01:58:48;;;;;;;13.45;6.97;;;;;;;4.05;79.87;102424.81;4885268;29;20051;-90
2023/04/05 02:01:13;;;;;;;10.20;6.88;;;;;;;4.00;79.87;102416.56;4888073;29;20040;-89
2023/04/05 02:03:38;;;;;;;10.52;6.07;;;;;;;3.97;80.06;102414.38;4885319;29;22012;-90
2023/04/05 02:06:04;;;;;;;13.68;7.75;;;;;;;3.90;80.19;102404.78;4906896;29;20132;-89
2023/04/05 02:08:30;;;;;;;14.05;7.07;;;;;;;3.94;79.88;102406.66;4891862;29;20238;-90
2023/04/05 02:10:55;;;;;;;12.70;7.60;;;;;;;3.91;79.76;102412.78;4892152;29;20478;-90
2023/04/05 02:13:21;;;;;;;12.13;6.22;;;;;;;3.91;80.22;102409.19;4902235;29;20039;-90
2023/04/05 02:15:48;;;;;;;18.20;6.72;;;;;;;3.89;80.38;102403.13;4889060;29;20032;-90
2023/04/05 02:18:13;;;;;;;16.60;7.30;;;;;;;3.85;80.06;102400.94;4905979;29;20306;-90
2023/04/05 02:20:38;;;;;;;13.32;6.07;;;;;;;3.90;80.56;102402.84;4895825;29;20667;-90
2023/04/05 02:23:04;;;;;;;9.85;6.30;;;;;;;3.87;80.74;102404.25;4898688;29;20038;-90
2023/04/05 02:25:29;;;;;;;11.98;7.35;;;;;;;3.83;80.73;102405.13;4910004;29;20468;-90
2023/04/05 02:27:55;;;;;;;10.50;6.43;;;;;;;3.80;80.85;102402.97;4902797;29;20583;-90
2023/04/05 02:30:20;;;;;;;16.08;7.13;;;;;;;3.68;80.67;102381.19;4919138;29;20587;-89
2023/04/05 02:32:45;;;;;;;13.43;6.90;;;;;;;3.77;81.05;102401.59;4917117;29;20039;-89
2023/04/05 02:35:11;;;;;;;14.00;7.38;;;;;;;3.74;80.95;102409.69;4896101;29;20485;-90
2023/04/05 02:37:37;;;;;;;11.60;7.20;;;;;;;3.76;81.00;102407.44;4897384;29;20032;-90
2023/04/05 02:40:10;;;;;;;11.23;6.78;;;;;;;3.74;80.67;102399.41;4917918;29;20066;-90
2023/04/05 02:42:35;;;;;;;18.08;7.40;;;;;;;3.69;80.99;102396.72;4901812;29;20027;-90
2023/04/05 02:45:01;;;;;;;13.35;6.40;;;;;;;3.69;80.91;102396.72;4918009;29;20114;-90
2023/04/05 02:47:26;;;;;;;8.75;5.75;;;;;;;3.68;80.87;102395.06;4914184;29;20127;-89
2023/04/05 02:49:52;;;;;;;16.10;7.55;;;;;;;3.61;81.18;102398.16;4913293;29;20034;-90
2023/04/05 02:52:17;;;;;;;14.77;7.20;;;;;;;3.62;81.15;102388.72;4898686;29;20079;-90
2023/04/05 02:54:43;;;;;;;16.15;7.32;;;;;;;3.64;81.14;102386.50;4895772;29;20126;-88
2023/04/05 02:57:10;;;;;;;13.00;7.30;;;;;;;3.57;81.22;102382.44;4913344;29;20035;-89
2023/04/05 02:59:37;;;;;;;13.90;6.35;;;;;;;3.57;80.91;102391.56;4917171;29;20397;-90
2023/04/05 03:02:03;;;;;;;19.77;7.78;;;;;;;3.57;81.38;102391.56;4904357;29;20066;-90
2023/04/05 03:04:29;;;;;;;11.88;6.15;;;;;;;3.53;81.54;102384.16;4916056;29;20505;-90
2023/04/05 03:06:56;;;;;;;12.38;7.10;;;;;;;3.51;81.40;102384.44;4899379;29;20027;-89
2023/04/05 03:09:22;;;;;;;12.95;6.57;;;;;;;3.53;81.26;102378.59;4915110;29;20032;-90
2023/04/05 03:11:47;;;;;;;15.25;8.52;;;;;;;3.37;81.67;102359.41;4899336;29;20204;-90
2023/04/05 03:14:13;;;;;;;15.45;7.57;;;;;;;3.48;81.77;102387.81;4917283;29;20449;-90
2023/04/05 03:16:38;;;;;;;11.82;7.00;;;;;;;3.49;81.86;102388.63;4926172;29;20383;-90
2023/04/05 03:19:05;;;;;;;14.70;7.82;;;;;;;3.39;81.86;102368.22;4911296;29;20074;-89
2023/04/05 03:21:31;;;;;;;11.95;8.23;;;;;;;3.44;81.61;102375.66;4921259;29;20119;-90
2023/04/05 03:23:56;;;;;;;12.93;7.15;;;;;;;3.39;81.91;102372.94;4902445;29;20039;-89
2023/04/05 03:26:22;;;;;;;13.55;7.82;;;;;;;3.37;81.92;102364.09;4901524;29;20035;-90
2023/04/05 03:28:47;;;;;;;13.13;7.07;;;;;;;3.39;82.03;102373.75;4914797;29;20569;-90
2023/04/05 03:31:13;;;;;;;12.63;7.50;;;;;;;3.37;82.03;102370.47;4896840;29;20035;-90
2023/04/05 03:33:38;;;;;;;13.57;7.85;;;;;;;3.35;82.28;102363.56;4923826;29;20502;-89
2023/04/05 03:36:04;;;;;;;18.45;7.50;;;;;;;3.32;82.41;102364.97;4906064;29;20019;-89
2023/04/05 03:38:31;;;;;;;12.13;7.55;;;;;;;3.21;82.29;102341.28;4902795;29;20038;-89
2023/04/05 03:40:57;;;;;;;15.40;8.13;;;;;;;3.31;82.65;102363.34;4895636;29;20101;-89
2023/04/05 03:43:22;;;;;;;13.68;7.32;;;;;;;3.21;82.82;102350.41;4907953;29;20502;-88
2023/04/05 03:45:47;;;;;;;13.45;8.15;;;;;;;3.26;82.79;102363.38;4896695;29;20319;-89
2023/04/05 03:48:13;;;;;;;14.90;7.93;;;;;;;3.26;82.80;102363.38;4885759;29;20117;-89
2023/04/05 03:50:38;;;;;;;15.57;8.43;;;;;;;3.17;82.51;102356.84;4888635;29;20051;-89
2023/04/05 03:53:03;;;;;;;9.75;7.32;;;;;;;3.22;82.75;102368.66;4904260;29;20051;-88
2023/04/05 03:55:30;;;;;;;14.43;7.78;;;;;;;3.19;82.87;102354.59;4891975;29;20092;-89
2023/04/05 03:57:55;;;;;;;16.17;8.15;;;;;;;3.19;82.67;102365.66;4901295;29;20150;-89
2023/04/05 04:00:22;;;;;;;20.15;7.95;;;;;;;3.16;83.02;102364.31;4896897;29;21343;-88
2023/04/05 04:02:49;;;;;;;15.48;7.72;;;;;;;3.15;83.01;102361.84;4883565;29;20028;-89
2023/04/05 04:05:16;;;;;;;17.20;7.93;;;;;;;3.14;82.77;102360.16;4898904;29;20119;-88
2023/04/05 04:07:42;;;;;;;12.90;8.00;;;;;;;3.09;82.77;102351.91;4890654;29;20030;-89
2023/04/05 04:10:09;;;;;;;13.27;7.03;;;;;;;3.09;82.97;102349.16;4903921;29;20456;-89
2023/04/05 04:12:35;;;;;;;13.70;8.32;;;;;;;3.03;83.11;102346.41;4904140;29;20732;-89
2023/04/05 04:15:01;;;;;;;13.02;7.47;;;;;;;3.02;83.07;102353.09;4887422;29;20504;-89
2023/04/05 04:17:27;;;;;;;13.38;8.55;;;;;;;3.05;83.06;102355.25;4907317;29;20059;-89
2023/04/05 04:19:53;;;;;;;15.05;8.23;;;;;;;3.10;82.99;102356.31;4911506;29;20122;-89
2023/04/05 04:22:19;;;;;;;18.88;7.78;;;;;;;3.02;83.13;102353.09;4916704;29;20041;-88
2023/04/05 04:24:48;;;;;;;12.10;7.03;;;;;;;2.99;83.37;102348.16;4918456;29;20149;-89
2023/04/05 04:27:15;;;;;;;13.20;8.45;;;;;;;2.94;83.57;102344.59;4923417;29;20170;-89
2023/04/05 04:29:45;;;;;;;13.65;8.05;;;;;;;2.96;83.50;102343.19;4898849;29;20019;-89
2023/04/05 04:32:14;;;;;;;14.30;8.05;;;;;;;2.96;83.23;102347.88;4917209;29;20234;-89
2023/04/05 04:34:43;;;;;;;13.75;8.45;;;;;;;2.92;83.36;102339.34;4890129;29;20039;-88
2023/04/05 04:37:17;;;;;;;17.80;9.88;;;;;;;2.98;83.37;102354.78;4892707;29;20129;-89
2023/04/05 04:39:47;;;;;;;16.00;7.95;;;;;;;2.89;83.22;102342.69;4891670;29;20574;-88
2023/04/05 04:42:18;;;;;;;12.75;8.32;;;;;;;2.89;83.55;102331.63;4905870;29;20031;-89
2023/04/05 04:44:44;;;;;;;12.57;7.78;;;;;;;2.91;83.30;102348.78;4906308;29;20035;-89
2023/04/05 04:47:12;;;;;;;13.98;9.27;;;;;;;2.84;83.73;102345.50;4911353;29;20600;-88
2023/04/05 04:49:40;;;;;;;13.70;7.60;;;;;;;2.83;83.77;102338.31;4915899;29;20028;-89
2023/04/05 04:52:05;;;;;;;14.10;8.20;;;;;;;2.75;83.74;102327.88;4926317;29;20040;-89
2023/04/05 04:54:32;;;;;;;16.48;10.30;;;;;;;2.84;83.12;102345.50;4929912;29;20031;-89
2023/04/05 04:56:58;;;;;;;14.70;8.05;;;;;;;2.77;83.34;102334.75;4929931;29;20031;-88
2023/04/05 04:59:24;;;;;;;16.20;8.25;;;;;;;2.77;83.68;102339.47;4918227;29;21037;-88
2023/04/05 05:01:49;;;;;;;15.05;9.00;;;;;;;2.84;83.66;102340.78;4905629;29;20040;-89
2023/04/05 05:04:15;;;;;;;13.70;8.77;;;;;;;2.77;83.89;102345.00;4906921;29;20110;-88
2023/04/05 05:06:40;;;;;;;16.25;9.38;;;;;;;2.73;83.76;102346.69;4906088;29;20055;-88
2023/04/05 05:09:06;;;;;;;12.70;7.45;;;;;;;2.69;83.23;102334.56;4920485;29;20020;-88
2023/04/05 05:11:31;;;;;;;13.80;9.15;;;;;;;2.73;83.57;102347.53;4914388;29;20060;-89
2023/04/05 05:13:56;;;;;;;16.25;8.35;;;;;;;2.77;83.42;102345.81;4912760;29;21457;-88
2023/04/05 05:16:22;;;;;;;16.02;9.13;;;;;;;2.75;83.44;102350.00;4921903;29;20062;-89
2023/04/05 05:18:50;;;;;;;17.83;8.57;;;;;;;2.70;83.86;102345.34;4924664;28;20091;-88
2023/04/05 05:21:15;;;;;;;15.90;9.25;;;;;;;2.63;83.86;102334.59;4926997;29;20034;-89
2023/04/05 05:23:41;;;;;;;15.05;8.85;;;;;;;2.71;84.32;102351.69;4933939;29;20053;-88
2023/04/05 05:26:06;;;;;;;17.70;8.70;;;;;;;2.59;84.05;102322.47;4907376;29;20122;-88
2023/04/05 05:28:31;;;;;;;21.05;9.45;;;;;;;2.54;84.42;102322.50;4911596;29;20026;-89
2023/04/05 05:30:57;;;;;;;14.52;9.52;;;;;;;2.56;84.29;102328.56;4907514;29;20387;-89
2023/04/05 05:33:24;;;;;;;19.30;10.48;;;;;;;2.57;84.81;102330.25;4933002;29;20501;-88
2023/04/05 05:35:50;;;;;;;18.90;10.05;;;;;;;2.53;84.82;102320.88;4929069;29;20552;-89
2023/04/05 05:38:16;;;;;;;17.73;9.70;;;;;;;2.63;84.79;102336.53;4927344;29;20529;-89
2023/04/05 05:40:41;;;;;;;17.50;9.55;;;;;;;2.62;84.88;102337.66;4907872;29;20042;-89
2023/04/05 05:43:07;;;;;;;18.55;9.88;;;;;;;2.53;84.67;102312.56;4931930;29;20370;-88
2023/04/05 05:45:33;;;;;;;17.70;10.57;;;;;;;2.64;84.90;102330.72;4912507;29;20028;-89
2023/04/05 05:47:58;;;;;;;16.20;9.65;;;;;;;2.60;84.75;102326.88;4910227;29;20486;-87
2023/04/05 05:50:23;;;;;;;15.05;9.68;;;;;;;2.61;85.28;102324.94;4910897;29;20034;-89
2023/04/05 05:52:49;;;;;;;24.52;12.05;;;;;;;2.64;85.14;102335.44;4922219;29;20020;-89
2023/04/05 05:55:15;;;;;;;18.15;11.65;;;;;;;2.40;87.66;102332.56;4911926;29;20027;-89
2023/04/05 05:57:40;;;;;;;21.08;12.10;;;;;;;2.54;86.85;102332.75;4931073;29;20090;-89
2023/04/05 06:00:09;;;;;;;25.35;13.48;;;;;;;2.52;89.87;102327.50;4919677;29;20039;-80
2023/04/05 06:02:34;;;;;;;19.00;12.90;;;;;;;2.85;90.61;102322.28;4920573;29;20126;-78
2023/04/05 06:05:01;;;;;;;21.90;12.10;;;;;;;2.67;90.21;102331.25;4922885;29;20055;-78
2023/04/05 06:07:27;;;;;;;20.02;13.35;;;;;;;2.50;90.59;102334.44;4923783;29;20042;-79
2023/04/05 06:09:52;;;;;;;21.30;13.23;;;;;;;2.51;90.34;102323.09;4922644;29;20040;-77
2023/04/05 06:12:20;;;;;;;23.67;13.07;;;;;;;2.47;90.54;102332.22;4923307;29;20043;-77
2023/04/05 06:14:45;;;;;;;24.60;12.82;;;;;;;2.56;90.34;102336.88;4933331;29;20046;-77
2023/04/05 06:17:11;;;;;;;24.50;12.88;;;;;;;2.42;91.23;102342.22;4931710;29;20035;-77
2023/04/05 06:19:36;;;;;;;24.13;14.10;;;;;;;2.65;90.72;102337.88;4932808;29;20039;-78
2023/04/05 06:22:02;;;;;;;26.88;13.38;;;;;;;2.53;90.75;102340.22;4930130;29;20111;-78
2023/04/05 06:24:30;;;;;;;22.17;12.65;;;;;;;2.50;91.15;102346.31;4933754;29;20114;-78
2023/04/05 06:26:56;;;;;;;20.55;13.15;;;;;;;2.43;91.83;102340.28;4913522;29;20040;-78
2023/04/05 06:29:22;;;;;;;22.40;13.07;;;;;;;2.56;91.58;102342.41;4934842;29;20055;-78
2023/04/05 06:31:47;;;;;;;23.77;12.93;;;;;;;2.74;89.71;102334.50;4932087;29;20043;-78
2023/04/05 06:34:13;;;;;;;21.38;12.02;;;;;;;2.60;91.08;102348.19;4929143;29;20036;-78
2023/04/05 06:36:38;;;;;;;25.58;13.68;;;;;;;2.50;91.70;102340.78;4920299;29;20508;-77
2023/04/05 06:39:03;;;;;;;26.02;13.90;;;;;;;2.63;90.67;102342.06;4927104;29;20159;-77
2023/04/05 06:41:29;;;;;;;24.50;13.35;;;;;;;2.77;89.71;102345.00;4927661;29;20047;-78
2023/04/05 06:43:55;;;;;;;20.27;13.73;;;;;;;2.82;89.72;102348.53;4939375;29;20663;-78
2023/04/05 06:46:20;;;;;;;20.20;12.57;;;;;;;2.83;89.41;102349.38;4924622;29;20546;-78
2023/04/05 06:48:47;;;;;;;29.52;14.73;;;;;;;2.81;89.47;102343.31;4932852;29;20039;-78
2023/04/05 06:51:12;;;;;;;24.58;12.18;;;;;;;2.93;89.79;102349.31;4915256;29;20102;-78
2023/04/05 06:53:38;;;;;;;28.27;14.00;;;;;;;2.72;91.33;102342.25;4925396;29;20482;-78
2023/04/05 06:56:03;;;;;;;22.77;12.65;;;;;;;2.59;92.84;102350.13;4913188;29;20112;-78
2023/04/05 06:58:29;;;;;;;21.02;12.35;;;;;;;2.77;90.94;102343.06;4932590;29;20039;-78
2023/04/05 07:00:54;;;;;;;20.50;12.30;;;;;;;2.87;90.52;102344.06;4931068;29;20541;-78
2023/04/05 07:03:20;;;;;;;27.90;14.43;;;;;;;2.90;92.41;102340.75;4928578;29;20024;-78
2023/04/05 07:05:57;;;;;;;20.92;12.43;;;;;;;3.04;88.24;102337.03;4929099;29;20063;-78
2023/04/05 07:08:23;;;;;;;20.65;12.35;;;;;;;3.12;89.58;102357.72;4932657;29;20055;-78
2023/04/05 07:10:50;;;;;;;21.42;12.48;;;;;;;2.81;92.75;102340.56;4926868;29;20051;-78
2023/04/05 07:13:16;;;;;;;23.45;11.95;;;;;;;2.87;92.30;102346.84;4928404;29;20035;-78
2023/04/05 07:15:43;;;;;;;20.52;11.90;;;;;;;2.96;91.77;102339.59;4925941;29;20035;-78
2023/04/05 07:18:08;;;;;;;23.30;12.02;;;;;;;3.03;90.62;102346.41;4909766;29;20406;-77
2023/04/05 07:20:34;;;;;;;23.33;12.45;;;;;;;2.94;93.41;102342.63;4929052;29;20035;-78
2023/04/05 07:22:59;;;;;;;20.45;12.20;;;;;;;3.02;90.70;102344.78;4927882;29;20035;-78
2023/04/05 07:25:24;;;;;;;20.48;13.00;;;;;;;3.05;92.68;102355.25;4911469;29;20039;-78
2023/04/05 07:27:51;;;;;;;21.77;11.65;;;;;;;3.16;92.06;102347.72;4925857;29;20031;-78
2023/04/05 07:30:17;;;;;;;20.08;12.55;;;;;;;3.11;92.20;102349.69;4929434;29;20035;-78
2023/04/05 07:32:42;;;;;;;22.92;12.63;;;;;;;3.17;89.87;102341.03;4932116;29;20028;-78
2023/04/05 07:35:08;;;;;;;20.63;11.40;;;;;;;3.23;91.14;102342.66;4928166;29;20035;-78
2023/04/05 07:37:33;;;;;;;21.83;11.90;;;;;;;3.25;90.09;102350.66;4926944;29;20031;-79
2023/04/05 07:39:58;;;;;;;21.10;13.20;;;;;;;3.34;89.78;102346.13;4927565;29;20040;-78
2023/04/05 07:42:24;;;;;;;20.10;11.55;;;;;;;3.25;90.76;102345.13;4928938;29;20027;-78
2023/04/05 07:44:50;;;;;;;19.27;11.02;;;;;;;3.29;89.32;102343.44;4930696;29;20114;-78
2023/04/05 07:47:15;;;;;;;19.65;11.68;;;;;;;3.49;87.78;102347.09;4913668;29;20466;-78
2023/04/05 07:49:41;;;;;;;16.88;10.73;;;;;;;3.53;87.11;102342.63;4929658;29;20039;-78
2023/04/05 07:52:06;;;;;;;21.83;11.18;;;;;;;3.56;87.84;102345.59;4908025;29;20650;-78
2023/04/05 07:54:35;;;;;;;21.13;11.85;;;;;;;3.61;87.40;102347.50;4929032;29;20410;-78
2023/04/05 07:57:01;;;;;;;15.70;9.68;;;;;;;3.77;86.30;102335.09;4904870;29;20020;-78
2023/04/05 07:59:26;;;;;;;15.80;10.18;;;;;;;3.85;85.90;102341.94;4906424;29;20067;-79
2023/04/05 08:01:52;;;;;;;16.02;9.98;;;;;;;3.89;83.19;102337.47;4926413;29;20118;-78
2023/04/05 08:04:19;;;;;;;17.23;10.40;;;;;;;4.07;81.83;102344.16;4926802;29;20055;-78
2023/04/05 08:06:46;;;;;;;20.50;9.90;;;;;;;4.19;80.79;102333.44;4913711;29;20109;-78
2023/04/05 08:09:11;;;;;;;15.85;8.23;;;;;;;4.47;77.32;102337.22;4930381;29;20023;-78
2023/04/05 08:11:37;;;;;;;15.05;8.30;;;;;;;4.40;78.16;102342.28;4912758;29;20042;-78
2023/04/05 08:14:02;;;;;;;19.98;8.95;;;;;;;4.37;77.24;102342.91;4928496;29;20478;-78
2023/04/05 08:16:27;;;;;;;15.95;9.20;;;;;;;4.57;75.69;102344.53;4939679;29;20390;-78
2023/04/05 08:18:53;;;;;;;11.82;8.13;;;;;;;4.78;74.17;102335.88;4939907;29;20031;-78
2023/04/05 08:21:18;;;;;;;15.90;8.75;;;;;;;4.78;71.75;102336.72;4934362;29;20074;-78
2023/04/05 08:23:43;;;;;;;16.50;8.52;;;;;;;4.78;74.16;102341.44;4929354;29;20177;-78
2023/04/05 08:26:09;;;;;;;20.45;7.50;;;;;;;4.76;73.75;102338.13;4914030;29;20453;-78
2023/04/05 08:28:34;;;;;;;16.13;8.40;;;;;;;4.65;72.95;102326.41;4929087;29;20027;-78
2023/04/05 08:30:59;;;;;;;14.55;8.30;;;;;;;4.87;71.72;102329.34;4933655;29;20027;-78
2023/04/05 08:33:25;;;;;;;15.48;9.13;;;;;;;5.15;70.84;102325.84;4919070;29;20027;-78
2023/04/05 08:35:51;;;;;;;13.75;8.23;;;;;;;5.10;69.85;102326.72;4911284;29;20043;-78
2023/04/05 08:38:16;;;;;;;12.40;7.88;;;;;;;4.93;69.16;102332.84;4926342;29;20024;-78
2023/04/05 08:40:44;;;;;;;9.98;7.18;;;;;;;5.13;69.16;102322.53;4906056;29;20059;-78
2023/04/05 08:43:17;;;;;;;9.95;7.10;;;;;;;5.17;68.47;102323.56;4925414;29;20039;-79
2023/04/05 08:45:49;;;;;;;12.98;7.25;;;;;;;5.28;66.99;102316.69;4911561;29;20032;-78
2023/04/05 08:48:16;;;;;;;11.40;7.35;;;;;;;5.55;68.28;102324.22;4926161;29;20403;-78
2023/04/05 08:50:41;;;;;;;15.50;8.30;;;;;;;5.36;69.75;102317.94;4931928;29;20044;-78
2023/04/05 08:53:10;;;;;;;13.27;7.32;;;;;;;5.58;68.56;102320.00;4927065;29;20066;-78
2023/04/05 08:55:38;;;;;;;15.93;6.95;;;;;;;5.68;68.72;102326.16;4929235;29;20031;-78
2023/04/05 08:58:12;;;;;;;14.30;7.43;;;;;;;6.06;65.20;102312.06;4913046;29;20446;-78
2023/04/05 09:00:38;;;;;;;11.13;7.20;;;;;;;5.98;63.45;102304.44;4924564;29;20059;-78
2023/04/05 09:03:05;;;;;;;11.35;7.78;;;;;;;5.95;65.07;102301.50;4930997;29;20402;-78
2023/04/05 09:05:32;;;;;;;11.88;6.28;;;;;;;6.33;63.63;102303.97;4910619;29;20063;-78
2023/04/05 09:07:58;;;;;;;14.57;7.93;;;;;;;6.77;60.96;102316.22;4923641;29;20028;-78
2023/04/05 09:10:24;;;;;;;12.45;6.90;;;;;;;6.51;59.64;102314.94;4909128;29;20050;-78
2023/04/05 09:12:51;;;;;;;11.25;7.85;;;;;;;6.13;60.25;102308.03;4909941;29;20465;-78
2023/04/05 09:15:17;;;;;;;10.13;6.75;;;;;;;6.12;59.86;102307.22;4926496;29;20055;-78
2023/04/05 09:17:42;;;;;;;12.30;6.95;;;;;;;6.31;58.79;102312.63;4931319;29;20059;-78
2023/04/05 09:20:08;;;;;;;11.25;6.03;;;;;;;6.01;58.94;102311.34;4908477;29;20935;-78
2023/04/05 09:22:46;;;;;;;13.60;7.88;;;;;;;6.24;58.43;102304.72;4927066;29;20119;-78
2023/04/05 09:25:31;;;;;;;9.57;5.78;;;;;;;6.20;61.81;102313.97;4901689;29;20536;-78
2023/04/05 09:27:58;;;;;;;14.63;6.75;;;;;;;6.37;57.95;102307.78;4913396;29;20040;-78
2023/04/05 09:30:24;;;;;;;14.40;7.18;;;;;;;6.91;55.54;102312.25;4910697;29;20036;-79
2023/04/05 09:32:54;;;;;;;14.45;6.88;;;;;;;6.67;54.63;102301.44;4905267;29;20126;-78
2023/04/05 09:35:21;;;;;;;13.32;6.28;;;;;;;6.30;53.97;102303.47;4925212;29;20043;-78
2023/04/05 09:38:05;;;;;;;11.20;5.40;;;;;;;6.19;55.72;102288.13;4922963;29;20048;-78
2023/04/05 09:40:42;;;;;;;10.35;6.35;;;;;;;6.36;56.42;102300.53;4920516;29;20050;-78
2023/04/05 09:43:08;;;;;;;12.13;6.25;;;;;;;6.75;54.57;102296.28;4921708;29;20087;-79
2023/04/05 09:45:38;;;;;;;15.25;6.97;;;;;;;6.70;54.56;102300.84;4919826;29;20093;-78
2023/04/05 09:48:04;;;;;;;18.30;7.35;;;;;;;6.92;54.48;102301.94;4923371;29;20019;-78
2023/04/05 09:50:29;;;;;;;15.55;7.32;;;;;;;6.86;53.20;102303.22;4908811;29;20042;-78
2023/04/05 09:53:14;;;;;;;9.57;6.13;;;;;;;7.25;53.74;102307.19;4921342;29;20063;-78
2023/04/05 09:55:41;;;;;;;11.18;6.38;;;;;;;6.91;52.73;102306.69;4922556;29;20039;-78
2023/04/05 09:58:11;;;;;;;14.25;7.82;;;;;;;6.76;55.51;102303.47;4931340;29;20024;-78
2023/04/05 10:00:36;;;;;;;11.50;6.28;;;;;;;6.78;53.77;102301.19;4924342;29;20039;-78
2023/04/05 10:03:02;;;;;;;9.88;6.43;;;;;;;6.83;52.54;102292.69;4925735;29;20041;-79
2023/04/05 10:05:28;;;;;;;13.93;6.85;;;;;;;6.96;52.20;102286.25;4933947;29;20036;-79
2023/04/05 10:07:58;;;;;;;11.68;6.45;;;;;;;7.58;51.43;102292.91;4917639;29;20047;-79
2023/04/05 10:10:24;;;;;;;12.60;6.07;;;;;;;7.90;50.63;102303.63;4930472;29;20398;-79
2023/04/05 10:12:50;;;;;;;8.10;6.32;;;;;;;7.59;50.90;102292.59;4916689;29;20102;-79
2023/04/05 10:15:17;;;;;;;8.93;6.03;;;;;;;7.79;49.20;102290.34;4932654;29;20497;-79
2023/04/05 10:18:01;;;;;;;10.30;6.30;;;;;;;7.65;47.38;102288.53;4932333;29;20045;-79
2023/04/05 10:20:27;;;;;;;14.43;6.35;;;;;;;7.86;48.15;102283.16;4912392;29;20064;-79
2023/04/05 10:23:16;;;;;;;8.60;6.00;;;;;;;8.02;47.36;102285.47;4925320;29;20066;-78
2023/04/05 10:25:47;;;;;;;8.25;5.78;;;;;;;8.84;46.65;102275.28;4909488;29;20494;-78
2023/04/05 10:28:15;;;;;;;13.02;6.68;;;;;;;9.25;47.19;102275.81;4928736;29;20038;-79
2023/04/05 10:30:46;;;;;;;13.93;7.32;;;;;;;8.65;46.25;102274.84;4928860;29;20027;-78
2023/04/05 10:33:44;;;;;;;11.85;6.82;;;;;;;8.09;45.73;102275.44;4938233;29;20032;-78
2023/04/05 10:36:38;;;;;;;10.52;6.50;;;;;;;8.70;45.45;102264.28;4911983;29;20585;-78
2023/04/05 10:39:11;;;;;;;12.68;6.53;;;;;;;8.81;45.82;102266.75;4913340;29;20122;-78
2023/04/05 10:41:46;;;;;;;13.52;6.15;;;;;;;9.15;44.44;102263.88;4924006;29;20035;-79
2023/04/05 10:44:12;;;;;;;11.10;5.35;;;;;;;9.15;43.75;102254.66;4927877;29;20028;-79
2023/04/05 10:46:39;;;;;;;11.25;7.30;;;;;;;8.80;44.19;102257.56;4922827;29;20091;-79
2023/04/05 10:49:26;;;;;;;10.45;4.95;;;;;;;8.95;43.21;102257.00;4931741;29;20430;-79
2023/04/05 10:51:52;;;;;;;10.75;5.25;;;;;;;9.47;42.35;102253.19;4933038;29;20526;-78
2023/04/05 10:54:19;;;;;;;8.27;5.63;;;;;;;9.25;41.16;102259.03;4909019;29;20063;-79
2023/04/05 10:56:44;;;;;;;11.35;6.00;;;;;;;8.38;44.67;102251.69;4946002;29;20093;-78
2023/04/05 10:59:12;;;;;;;9.43;6.63;;;;;;;8.69;43.26;102243.13;4936653;29;20035;-79
2023/04/05 11:01:39;;;;;;;9.30;6.03;;;;;;;8.62;48.54;102240.03;4926564;29;20031;-79
2023/04/05 11:04:11;;;;;;;9.85;5.80;;;;;;;8.37;43.86;102238.03;4908412;29;20028;-79
2023/04/05 11:06:37;;;;;;;8.88;6.22;;;;;;;9.02;43.54;102234.16;4924276;29;20050;-79
2023/04/05 11:09:20;;;;;;;9.15;5.70;;;;;;;9.81;41.12;102228.97;4918158;29;20560;-78
2023/04/05 11:11:48;;;;;;;8.82;5.28;;;;;;;9.94;41.34;102239.06;4930260;28;20036;-78
2023/04/05 11:14:21;;;;;;;10.40;6.68;;;;;;;10.19;41.95;102222.44;4912590;29;20204;-78
2023/04/05 11:16:55;;;;;;;8.27;5.70;;;;;;;10.35;40.08;102217.03;4910197;29;20171;-79
2023/04/05 11:19:46;;;;;;;9.07;5.38;;;;;;;10.33;39.23;102223.00;4925940;29;20296;-79
2023/04/05 11:22:12;;;;;;;11.30;7.28;;;;;;;10.44;38.99;102222.56;4924404;29;20036;-79
2023/04/05 11:24:58;;;;;;;6.72;5.32;;;;;;;10.65;39.06;102217.75;4926937;29;20087;-79
2023/04/05 11:27:27;;;;;;;11.57;6.25;;;;;;;10.72;39.23;102229.19;4911927;29;20481;-78